createdAt,value
2022-12-09T00:00:10.397Z,100122.63
2022-12-09T00:05:12.376Z,100114.13
2022-12-09T00:10:13.952Z,100112.03
2022-12-09T00:15:15.529Z,100105.09
2022-12-09T00:20:17.202Z,100092.91
2022-12-09T00:25:18.851Z,100096.38
2022-12-09T00:30:20.488Z,100091.28
2022-12-09T00:35:23.011Z,100089.72
2022-12-09T00:40:24.585Z,100085.19
2022-12-09T00:45:26.104Z,100085.59
2022-12-09T00:50:27.803Z,100084.56
2022-12-09T00:55:29.654Z,100088.63
2022-12-09T01:00:31.708Z,100089.41
2022-12-09T01:05:36.427Z,100086.25
2022-12-09T01:10:39.814Z,100094.31
2022-12-09T01:15:42.215Z,100089.34
2022-12-09T01:20:43.832Z,100088.75
2022-12-09T01:25:45.970Z,100092.31
2022-12-09T01:30:47.770Z,100090.63
2022-12-09T01:35:49.560Z,100096.16
2022-12-09T01:40:51.405Z,100096.06
2022-12-09T01:45:53.152Z,100090.69
2022-12-09T01:50:59.451Z,100092.59
2022-12-09T01:56:05.832Z,100085.34
2022-12-09T02:01:07.777Z,100085.19
2022-12-09T02:06:09.825Z,100077.53
2022-12-09T02:11:37.562Z,100068.72
2022-12-09T02:17:03.562Z,100068.56
2022-12-09T02:22:08.120Z,100064.94
2022-12-09T02:27:32.487Z,100062.16
2022-12-09T02:32:40.520Z,100067.69
2022-12-09T02:38:06.851Z,100059.38
2022-12-09T02:43:10.995Z,100061.66
2022-12-09T02:48:18.499Z,100053.28
2022-12-09T02:53:23.502Z,100053.16
2022-12-09T02:58:25.301Z,100048.78
2022-12-09T03:03:31.212Z,100046.44
2022-12-09T03:08:48.312Z,100036.69
2022-12-09T03:13:52.643Z,100050.59
2022-12-09T03:19:03.798Z,100038.69
2022-12-09T03:24:08.447Z,100038.50
2022-12-09T03:29:18.361Z,100034.31
2022-12-09T03:34:24.943Z,100033.41
2022-12-09T03:39:32.847Z,100038.06
2022-12-09T03:44:43.891Z,100030.66
2022-12-09T03:49:45.524Z,100020.75
2022-12-09T03:54:55.285Z,100023.50
2022-12-09T04:00:00.218Z,100017.41
2022-12-09T04:05:02.312Z,100008.13
2022-12-09T04:10:06.286Z,100004.97
2022-12-09T04:15:08.863Z,100011.50
2022-12-09T04:20:11.225Z,100009.38
2022-12-09T04:25:13.726Z,100002.34
2022-12-09T04:30:15.647Z,100002.81
2022-12-09T04:35:17.163Z,99994.00
2022-12-09T04:40:23.807Z,99996.56
2022-12-09T04:45:25.956Z,99992.41
2022-12-09T04:50:27.949Z,99990.94
2022-12-09T04:55:29.665Z,99980.50
2022-12-09T05:00:31.237Z,99981.69
2022-12-09T05:05:32.884Z,99985.97
2022-12-09T05:10:34.831Z,99985.34
2022-12-09T05:15:38.386Z,99989.94
2022-12-09T05:20:41.191Z,99985.28
2022-12-09T05:25:42.821Z,99983.16
2022-12-09T05:30:44.569Z,99984.41
2022-12-09T05:35:52.758Z,99979.66
2022-12-09T05:40:55.303Z,99974.22
2022-12-09T05:45:56.950Z,99970.31
2022-12-09T05:51:00.028Z,99968.84
2022-12-09T05:56:02.088Z,99970.78
2022-12-09T06:01:06.343Z,99964.66
2022-12-09T06:06:14.680Z,99963.78
2022-12-09T06:11:19.758Z,99948.59
2022-12-09T06:16:22.439Z,99947.66
2022-12-09T06:21:24.500Z,99952.91
2022-12-09T06:26:31.919Z,99951.78
2022-12-09T06:31:33.665Z,99952.47
2022-12-09T06:36:36.241Z,99957.25
2022-12-09T06:41:40.690Z,99954.72
2022-12-09T06:46:42.324Z,99957.63
2022-12-09T06:51:44.709Z,99964.16
2022-12-09T06:56:46.564Z,99959.16
2022-12-09T07:01:48.806Z,99962.47
2022-12-09T07:06:50.625Z,99967.19
2022-12-09T07:11:52.830Z,99976.84
2022-12-09T07:16:54.591Z,99975.34
2022-12-09T07:21:56.657Z,99974.34
2022-12-09T07:27:03.127Z,99975.69
2022-12-09T07:32:11.632Z,99985.97
2022-12-09T07:37:13.354Z,99985.94
2022-12-09T07:42:15.058Z,99989.16
2022-12-09T07:47:26.504Z,99999.69
2022-12-09T07:52:28.318Z,99998.63
2022-12-09T07:57:29.881Z,100003.06
2022-12-09T08:02:31.893Z,100007.56
2022-12-09T08:07:37.309Z,99998.78
2022-12-09T08:12:42.440Z,99998.38
2022-12-09T08:17:44.317Z,99999.06
2022-12-09T08:22:46.129Z,99997.22
2022-12-09T08:27:47.877Z,99992.63
2022-12-09T08:32:50.095Z,99986.94
2022-12-09T08:37:52.186Z,99986.44
2022-12-09T08:42:54.265Z,99988.00
2022-12-09T08:47:56.360Z,99984.31
2022-12-09T08:52:58.281Z,99985.97
2022-12-09T08:58:00.095Z,99979.31
2022-12-09T09:03:01.990Z,99989.69
2022-12-09T09:08:04.237Z,99989.34
2022-12-09T09:13:05.848Z,99997.44
2022-12-09T09:18:07.790Z,100000.72
2022-12-09T09:23:10.063Z,100008.91
2022-12-09T09:28:11.789Z,100014.41
2022-12-09T09:33:13.357Z,100015.88
2022-12-09T09:38:15.329Z,100012.63
2022-12-09T09:43:19.430Z,100011.75
2022-12-09T09:48:24.588Z,100010.75
2022-12-09T09:53:32.068Z,100010.63
2022-12-09T09:58:49.516Z,100008.69
2022-12-09T10:04:03.421Z,100002.66
2022-12-09T10:09:22.867Z,100008.22
2022-12-09T10:15:00.873Z,99994.66
2022-12-09T10:20:10.626Z,99987.25
2022-12-09T10:25:22.234Z,99978.31
2022-12-09T10:30:24.602Z,99970.88
2022-12-09T10:35:30.155Z,99969.91
2022-12-09T10:40:48.192Z,99960.81
2022-12-09T10:51:36.649Z,99967.25
2022-12-09T10:57:00.132Z,99966.59
2022-12-09T11:02:06.306Z,99960.25
2022-12-09T11:07:21.879Z,99959.16
2022-12-09T11:12:27.321Z,99952.41
2022-12-09T11:17:30.311Z,99942.50
2022-12-09T11:22:36.627Z,99942.59
2022-12-09T11:27:49.490Z,99946.75
2022-12-09T11:32:55.948Z,99943.56
2022-12-09T11:38:02.226Z,99941.63
2022-12-09T11:43:04.704Z,99944.19
2022-12-09T11:48:35.106Z,99937.59
2022-12-09T11:53:42.177Z,99927.13
2022-12-09T11:59:11.494Z,99927.59
2022-12-09T12:04:21.081Z,99919.78
2022-12-09T12:09:43.755Z,99930.50
2022-12-09T12:14:45.297Z,99916.38
2022-12-09T12:19:51.624Z,99922.09
2022-12-09T12:25:21.406Z,99918.66
2022-12-09T12:30:39.809Z,99917.38
2022-12-09T12:35:47.777Z,99913.56
2022-12-09T12:41:04.625Z,99899.81
2022-12-09T12:46:17.044Z,99904.16
2022-12-09T12:51:24.471Z,99902.28
2022-12-09T12:56:37.365Z,99894.22
2022-12-09T13:01:57.084Z,99891.44
2022-12-09T13:07:36.042Z,99898.13
2022-12-09T13:12:43.046Z,99885.03
2022-12-09T13:17:47.070Z,99882.63
2022-12-09T13:23:20.900Z,99880.63
2022-12-09T13:28:33.693Z,99882.06
2022-12-09T13:33:49.747Z,99874.66
2022-12-09T13:38:51.403Z,99877.63
2022-12-09T13:43:54.625Z,99885.06
2022-12-09T13:48:56.262Z,99890.75
2022-12-09T13:53:57.768Z,99885.88
2022-12-09T13:59:17.423Z,99887.53
2022-12-09T14:04:24.812Z,99896.00
2022-12-09T14:09:35.550Z,99891.34
2022-12-09T14:14:44.013Z,99900.03
2022-12-09T14:19:48.613Z,99904.75
2022-12-09T14:24:53.895Z,99908.94
2022-12-09T14:30:23.333Z,99915.31
2022-12-09T14:35:49.000Z,99915.97
2022-12-09T14:40:59.547Z,99915.84
2022-12-09T14:46:07.255Z,99911.19
2022-12-09T14:51:34.741Z,99906.16
2022-12-09T14:56:36.407Z,99903.19
2022-12-09T15:01:54.358Z,99900.88
2022-12-09T15:07:18.355Z,99909.25
2022-12-09T15:12:25.184Z,99912.91
2022-12-09T15:17:35.140Z,99916.13
2022-12-09T15:22:36.816Z,99917.22
2022-12-09T15:27:38.393Z,99926.94
2022-12-09T15:32:39.975Z,99926.59
2022-12-09T15:37:41.808Z,99931.78
2022-12-09T15:42:46.914Z,99929.88
2022-12-09T15:48:08.895Z,99930.59
2022-12-09T15:53:39.149Z,99929.97
2022-12-09T15:58:52.552Z,99937.97
2022-12-09T16:03:55.967Z,99934.06
2022-12-09T16:08:58.130Z,99931.50
2022-12-09T16:14:00.869Z,99929.44
2022-12-09T16:19:02.431Z,99933.66
2022-12-09T16:24:12.962Z,99935.91
2022-12-09T16:29:27.759Z,99932.31
2022-12-09T16:34:29.824Z,99928.59
2022-12-09T16:39:33.596Z,99936.50
2022-12-09T16:44:37.111Z,99939.53
2022-12-09T16:49:40.472Z,99933.69
2022-12-09T16:54:46.292Z,99930.56
2022-12-09T16:59:48.270Z,99937.06
2022-12-09T17:04:51.397Z,99942.00
2022-12-09T17:09:52.904Z,99955.56
2022-12-09T17:14:54.515Z,99951.13
2022-12-09T17:19:56.086Z,99946.00
2022-12-09T17:24:57.606Z,99950.59
2022-12-09T17:29:59.190Z,99953.84
2022-12-09T17:35:00.741Z,99948.75
2022-12-09T17:40:03.871Z,99957.81
2022-12-09T17:45:06.480Z,99964.47
2022-12-09T17:50:08.689Z,99969.59
2022-12-09T17:55:10.907Z,99979.69
2022-12-09T18:00:13.083Z,99985.81
2022-12-09T18:05:14.642Z,99991.94
2022-12-09T18:10:16.362Z,99995.84
2022-12-09T18:15:17.990Z,100003.78
2022-12-09T18:20:19.614Z,100007.09
2022-12-09T18:25:21.110Z,100005.63
2022-12-09T18:30:22.658Z,100007.69
2022-12-09T18:35:24.209Z,100013.41
2022-12-09T18:40:26.183Z,100020.34
2022-12-09T18:45:27.789Z,100020.47
2022-12-09T18:50:29.285Z,100022.88
2022-12-09T18:55:30.753Z,100026.28
2022-12-09T19:00:32.297Z,100025.31
2022-12-09T19:05:42.072Z,100022.88
2022-12-09T19:10:52.523Z,100020.25
2022-12-09T19:15:54.070Z,100021.31
2022-12-09T19:20:55.646Z,100026.50
2022-12-09T19:25:57.213Z,100026.66
2022-12-09T19:30:58.813Z,100026.78
2022-12-09T19:36:03.300Z,100036.97
2022-12-09T19:41:05.133Z,100040.38
2022-12-09T19:46:08.789Z,100035.22
2022-12-09T19:51:12.988Z,100038.84
2022-12-09T19:56:17.959Z,100039.25
2022-12-09T20:01:25.207Z,100036.78
2022-12-09T20:06:27.423Z,100044.53
2022-12-09T20:11:30.731Z,100047.97
2022-12-09T20:16:33.441Z,100049.06
2022-12-09T20:21:34.988Z,100056.13
2022-12-09T20:26:37.663Z,100056.91
2022-12-09T20:31:40.840Z,100068.34
2022-12-09T20:36:43.972Z,100068.34
2022-12-09T20:41:46.501Z,100068.88
2022-12-09T20:46:51.855Z,100066.56
2022-12-09T20:51:54.370Z,100081.09
2022-12-09T20:56:55.913Z,100075.66
2022-12-09T21:01:57.484Z,100078.66
2022-12-09T21:06:58.984Z,100080.56
2022-12-09T21:12:00.549Z,100081.09
2022-12-09T21:17:02.149Z,100085.44
2022-12-09T21:22:04.074Z,100083.69
2022-12-09T21:27:05.551Z,100080.97
2022-12-09T21:32:07.108Z,100082.19
2022-12-09T21:37:08.641Z,100080.66
2022-12-09T21:42:10.151Z,100086.91
2022-12-09T21:47:12.032Z,100085.44
2022-12-09T21:52:13.548Z,100094.41
2022-12-09T21:57:15.074Z,100090.19
2022-12-09T22:02:16.816Z,100095.78
2022-12-09T22:07:18.719Z,100090.75
2022-12-09T22:12:20.322Z,100110.59
2022-12-09T22:17:21.820Z,100110.31
2022-12-09T22:22:23.300Z,100117.53
2022-12-09T22:27:24.944Z,100118.75
2022-12-09T22:32:29.264Z,100109.78
2022-12-09T22:37:46.114Z,100115.22
2022-12-09T22:42:47.644Z,100124.16
2022-12-09T22:47:50.222Z,100113.56
2022-12-09T22:52:51.778Z,100113.66
2022-12-09T22:57:53.315Z,100125.56
2022-12-09T23:02:54.973Z,100127.28
2022-12-09T23:07:56.570Z,100124.78
2022-12-09T23:12:58.180Z,100134.28
2022-12-09T23:18:00.094Z,100142.53
2022-12-09T23:23:01.601Z,100134.31
2022-12-09T23:28:03.225Z,100135.84
2022-12-09T23:33:04.724Z,100138.78
2022-12-09T23:38:06.378Z,100145.88
2022-12-09T23:43:08.013Z,100146.72
2022-12-09T23:48:09.561Z,100151.16
2022-12-09T23:53:11.037Z,100151.91
2022-12-09T23:58:12.513Z,100147.25
